sensor_id;sensor_type;location;lat;lon;timestamp;temperature;humidity
31619;DHT22;18230;51.502;7.108;2024-03-25T00:00:56;6.80;99.90
31619;DHT22;18230;51.502;7.108;2024-03-25T00:05:56;6.80;99.90
31619;DHT22;18230;51.502;7.108;2024-03-25T00:10:57;6.90;99.90
31619;DHT22;18230;51.502;7.108;2024-03-25T00:15:58;6.90;99.90
31619;DHT22;18230;51.502;7.108;2024-03-25T00:20:59;6.90;99.90
31619;DHT22;18230;51.502;7.108;2024-03-25T00:25:59;6.90;99.90
31619;DHT22;18230;51.502;7.108;2024-03-25T00:31:00;6.90;99.90
31619;DHT22;18230;51.502;7.108;2024-03-25T00:36:01;6.90;99.90
31619;DHT22;18230;51.502;7.108;2024-03-25T00:41:01;6.90;99.90
31619;DHT22;18230;51.502;7.108;2024-03-25T00:46:02;6.80;99.90
31619;DHT22;18230;51.502;7.108;2024-03-25T00:51:03;6.80;99.90
31619;DHT22;18230;51.502;7.108;2024-03-25T00:56:03;6.80;99.90
31619;DHT22;18230;51.502;7.108;2024-03-25T01:01:04;6.80;99.90
31619;DHT22;18230;51.502;7.108;2024-03-25T01:06:05;6.80;99.90
31619;DHT22;18230;51.502;7.108;2024-03-25T01:11:05;6.80;99.90
31619;DHT22;18230;51.502;7.108;2024-03-25T01:16:07;6.80;99.90
31619;DHT22;18230;51.502;7.108;2024-03-25T01:21:07;6.70;99.90
31619;DHT22;18230;51.502;7.108;2024-03-25T01:26:08;6.70;99.90
31619;DHT22;18230;51.502;7.108;2024-03-25T01:31:08;6.70;99.90
31619;DHT22;18230;51.502;7.108;2024-03-25T01:36:09;6.70;99.90
31619;DHT22;18230;51.502;7.108;2024-03-25T01:41:12;6.70;99.90
31619;DHT22;18230;51.502;7.108;2024-03-25T01:46:16;6.80;99.90
31619;DHT22;18230;51.502;7.108;2024-03-25T01:51:19;6.80;99.90
31619;DHT22;18230;51.502;7.108;2024-03-25T01:56:21;6.80;99.90
31619;DHT22;18230;51.502;7.108;2024-03-25T02:01:23;6.70;99.90
31619;DHT22;18230;51.502;7.108;2024-03-25T02:06:27;6.70;99.90
31619;DHT22;18230;51.502;7.108;2024-03-25T02:11:28;6.70;99.90
31619;DHT22;18230;51.502;7.108;2024-03-25T02:16:29;6.60;99.90
31619;DHT22;18230;51.502;7.108;2024-03-25T02:21:30;6.60;99.90
31619;DHT22;18230;51.502;7.108;2024-03-25T02:26:31;6.60;99.90
31619;DHT22;18230;51.502;7.108;2024-03-25T02:31:31;6.60;99.90
31619;DHT22;18230;51.502;7.108;2024-03-25T02:36:33;6.60;99.90
31619;DHT22;18230;51.502;7.108;2024-03-25T02:41:33;6.40;99.90
31619;DHT22;18230;51.502;7.108;2024-03-25T02:46:39;6.20;99.90
31619;DHT22;18230;51.502;7.108;2024-03-25T02:51:40;6.10;99.90
31619;DHT22;18230;51.502;7.108;2024-03-25T02:56:41;6.10;99.90
31619;DHT22;18230;51.502;7.108;2024-03-25T03:01:41;6.00;99.90
31619;DHT22;18230;51.502;7.108;2024-03-25T03:06:42;6.00;99.90
31619;DHT22;18230;51.502;7.108;2024-03-25T03:11:42;5.90;99.90
31619;DHT22;18230;51.502;7.108;2024-03-25T03:16:43;5.90;99.90
31619;DHT22;18230;51.502;7.108;2024-03-25T03:21:44;5.90;99.90
31619;DHT22;18230;51.502;7.108;2024-03-25T03:26:45;6.00;99.90
31619;DHT22;18230;51.502;7.108;2024-03-25T03:31:45;5.90;99.90
31619;DHT22;18230;51.502;7.108;2024-03-25T03:36:46;5.90;99.90
31619;DHT22;18230;51.502;7.108;2024-03-25T03:41:47;5.90;99.90
31619;DHT22;18230;51.502;7.108;2024-03-25T03:46:47;5.90;99.90
31619;DHT22;18230;51.502;7.108;2024-03-25T03:51:48;5.90;99.90
31619;DHT22;18230;51.502;7.108;2024-03-25T03:56:48;5.90;99.90
31619;DHT22;18230;51.502;7.108;2024-03-25T04:01:49;5.80;99.90
31619;DHT22;18230;51.502;7.108;2024-03-25T04:06:49;5.70;99.90
31619;DHT22;18230;51.502;7.108;2024-03-25T04:11:50;5.70;99.90
31619;DHT22;18230;51.502;7.108;2024-03-25T04:16:51;5.70;99.90
31619;DHT22;18230;51.502;7.108;2024-03-25T04:21:53;5.60;99.90
31619;DHT22;18230;51.502;7.108;2024-03-25T04:26:54;5.50;99.90
31619;DHT22;18230;51.502;7.108;2024-03-25T04:31:55;5.50;99.90
31619;DHT22;18230;51.502;7.108;2024-03-25T04:36:56;5.50;99.90
31619;DHT22;18230;51.502;7.108;2024-03-25T04:41:57;5.40;99.90
31619;DHT22;18230;51.502;7.108;2024-03-25T04:46:57;5.40;99.90
31619;DHT22;18230;51.502;7.108;2024-03-25T04:51:58;5.40;99.90
31619;DHT22;18230;51.502;7.108;2024-03-25T04:56:58;5.40;99.90
31619;DHT22;18230;51.502;7.108;2024-03-25T05:01:59;5.40;99.90
31619;DHT22;18230;51.502;7.108;2024-03-25T05:07:00;5.40;99.90
31619;DHT22;18230;51.502;7.108;2024-03-25T05:12:00;5.30;99.90
31619;DHT22;18230;51.502;7.108;2024-03-25T05:17:01;5.30;99.90
31619;DHT22;18230;51.502;7.108;2024-03-25T05:22:03;5.30;99.90
31619;DHT22;18230;51.502;7.108;2024-03-25T05:27:04;5.30;99.90
31619;DHT22;18230;51.502;7.108;2024-03-25T05:32:05;5.30;99.90
31619;DHT22;18230;51.502;7.108;2024-03-25T05:37:06;5.30;99.90
31619;DHT22;18230;51.502;7.108;2024-03-25T05:42:07;5.20;99.90
31619;DHT22;18230;51.502;7.108;2024-03-25T05:47:09;5.30;99.90
31619;DHT22;18230;51.502;7.108;2024-03-25T05:52:09;5.30;99.90
31619;DHT22;18230;51.502;7.108;2024-03-25T05:57:10;5.40;99.90
31619;DHT22;18230;51.502;7.108;2024-03-25T06:02:10;5.60;99.90
31619;DHT22;18230;51.502;7.108;2024-03-25T06:07:11;5.80;99.90
31619;DHT22;18230;51.502;7.108;2024-03-25T06:12:12;6.30;99.90
31619;DHT22;18230;51.502;7.108;2024-03-25T06:17:13;6.70;99.90
31619;DHT22;18230;51.502;7.108;2024-03-25T06:22:14;6.80;99.90
31619;DHT22;18230;51.502;7.108;2024-03-25T06:27:14;6.70;99.90
31619;DHT22;18230;51.502;7.108;2024-03-25T06:32:15;6.70;99.90
31619;DHT22;18230;51.502;7.108;2024-03-25T06:37:34;6.60;99.90
31619;DHT22;18230;51.502;7.108;2024-03-25T06:42:35;6.70;99.90
31619;DHT22;18230;51.502;7.108;2024-03-25T06:47:35;6.90;99.90
31619;DHT22;18230;51.502;7.108;2024-03-25T06:52:36;7.20;99.90
31619;DHT22;18230;51.502;7.108;2024-03-25T06:57:36;7.40;99.90
31619;DHT22;18230;51.502;7.108;2024-03-25T07:02:37;7.60;99.90
31619;DHT22;18230;51.502;7.108;2024-03-25T07:07:38;7.70;99.90
31619;DHT22;18230;51.502;7.108;2024-03-25T07:12:38;7.90;99.90
31619;DHT22;18230;51.502;7.108;2024-03-25T07:17:39;8.30;99.90
31619;DHT22;18230;51.502;7.108;2024-03-25T07:22:39;8.90;99.90
31619;DHT22;18230;51.502;7.108;2024-03-25T07:27:40;8.70;99.90
31619;DHT22;18230;51.502;7.108;2024-03-25T07:32:41;8.70;99.90
31619;DHT22;18230;51.502;7.108;2024-03-25T07:37:42;8.80;99.90
31619;DHT22;18230;51.502;7.108;2024-03-25T07:42:43;9.30;99.90
31619;DHT22;18230;51.502;7.108;2024-03-25T07:47:43;9.50;99.90
31619;DHT22;18230;51.502;7.108;2024-03-25T07:52:44;9.70;99.90
31619;DHT22;18230;51.502;7.108;2024-03-25T07:57:45;10.10;99.90
31619;DHT22;18230;51.502;7.108;2024-03-25T08:02:45;10.00;99.90
31619;DHT22;18230;51.502;7.108;2024-03-25T08:07:46;9.80;99.90
31619;DHT22;18230;51.502;7.108;2024-03-25T08:12:46;9.90;99.90
31619;DHT22;18230;51.502;7.108;2024-03-25T08:17:47;9.80;99.90
31619;DHT22;18230;51.502;7.108;2024-03-25T08:22:49;9.80;99.90
31619;DHT22;18230;51.502;7.108;2024-03-25T08:27:49;9.80;99.90
31619;DHT22;18230;51.502;7.108;2024-03-25T08:32:50;9.80;99.90
31619;DHT22;18230;51.502;7.108;2024-03-25T08:37:51;9.90;99.90
31619;DHT22;18230;51.502;7.108;2024-03-25T08:42:51;9.80;99.90
31619;DHT22;18230;51.502;7.108;2024-03-25T08:47:52;9.80;99.90
31619;DHT22;18230;51.502;7.108;2024-03-25T08:52:52;9.70;99.90
31619;DHT22;18230;51.502;7.108;2024-03-25T08:57:53;9.80;99.90
31619;DHT22;18230;51.502;7.108;2024-03-25T09:02:54;9.80;99.90
31619;DHT22;18230;51.502;7.108;2024-03-25T09:07:55;10.10;99.90
31619;DHT22;18230;51.502;7.108;2024-03-25T09:12:55;10.40;99.90
31619;DHT22;18230;51.502;7.108;2024-03-25T09:17:56;10.40;99.90
31619;DHT22;18230;51.502;7.108;2024-03-25T09:22:56;10.20;99.90
31619;DHT22;18230;51.502;7.108;2024-03-25T09:27:57;10.60;99.90
31619;DHT22;18230;51.502;7.108;2024-03-25T09:32:58;10.60;99.90
31619;DHT22;18230;51.502;7.108;2024-03-25T09:37:58;10.50;99.90
31619;DHT22;18230;51.502;7.108;2024-03-25T09:43:02;10.40;99.90
31619;DHT22;18230;51.502;7.108;2024-03-25T09:48:04;10.50;99.90
31619;DHT22;18230;51.502;7.108;2024-03-25T09:53:05;10.40;99.90
31619;DHT22;18230;51.502;7.108;2024-03-25T09:58:06;10.50;99.90
31619;DHT22;18230;51.502;7.108;2024-03-25T10:03:07;10.70;99.90
31619;DHT22;18230;51.502;7.108;2024-03-25T10:08:09;11.20;99.90
31619;DHT22;18230;51.502;7.108;2024-03-25T10:13:10;11.40;99.90
31619;DHT22;18230;51.502;7.108;2024-03-25T10:18:13;11.20;99.90
31619;DHT22;18230;51.502;7.108;2024-03-25T10:23:14;11.40;99.90
31619;DHT22;18230;51.502;7.108;2024-03-25T10:28:14;11.40;99.90
31619;DHT22;18230;51.502;7.108;2024-03-25T10:33:15;11.30;99.90
31619;DHT22;18230;51.502;7.108;2024-03-25T10:38:16;11.70;99.90
31619;DHT22;18230;51.502;7.108;2024-03-25T10:43:18;11.90;99.90
31619;DHT22;18230;51.502;7.108;2024-03-25T10:48:28;12.10;99.90
31619;DHT22;18230;51.502;7.108;2024-03-25T10:53:30;11.90;99.90
31619;DHT22;18230;51.502;7.108;2024-03-25T10:58:31;12.10;99.90
31619;DHT22;18230;51.502;7.108;2024-03-25T11:03:33;12.00;99.90
31619;DHT22;18230;51.502;7.108;2024-03-25T11:08:35;11.80;99.90
31619;DHT22;18230;51.502;7.108;2024-03-25T11:13:37;11.70;99.90
31619;DHT22;18230;51.502;7.108;2024-03-25T11:18:38;11.80;99.90
31619;DHT22;18230;51.502;7.108;2024-03-25T11:23:41;11.80;99.90
31619;DHT22;18230;51.502;7.108;2024-03-25T11:28:42;11.70;99.90
31619;DHT22;18230;51.502;7.108;2024-03-25T11:33:43;12.10;99.90
31619;DHT22;18230;51.502;7.108;2024-03-25T11:38:44;12.60;99.90
31619;DHT22;18230;51.502;7.108;2024-03-25T11:43:44;12.80;99.90
31619;DHT22;18230;51.502;7.108;2024-03-25T11:48:45;12.80;99.90
31619;DHT22;18230;51.502;7.108;2024-03-25T11:53:46;13.00;99.90
31619;DHT22;18230;51.502;7.108;2024-03-25T11:58:47;13.10;99.90
31619;DHT22;18230;51.502;7.108;2024-03-25T12:03:47;13.20;99.90
31619;DHT22;18230;51.502;7.108;2024-03-25T12:08:48;13.00;99.90
31619;DHT22;18230;51.502;7.108;2024-03-25T12:14:07;13.00;99.90
31619;DHT22;18230;51.502;7.108;2024-03-25T12:19:08;13.10;99.90
31619;DHT22;18230;51.502;7.108;2024-03-25T12:24:09;13.40;99.90
31619;DHT22;18230;51.502;7.108;2024-03-25T12:29:10;13.20;99.90
31619;DHT22;18230;51.502;7.108;2024-03-25T12:34:12;13.30;99.90
31619;DHT22;18230;51.502;7.108;2024-03-25T12:39:19;13.70;99.90
31619;DHT22;18230;51.502;7.108;2024-03-25T12:44:20;13.90;99.90
31619;DHT22;18230;51.502;7.108;2024-03-25T12:49:21;13.70;99.90
31619;DHT22;18230;51.502;7.108;2024-03-25T12:54:22;13.60;99.90
31619;DHT22;18230;51.502;7.108;2024-03-25T12:59:22;13.40;99.90
31619;DHT22;18230;51.502;7.108;2024-03-25T13:04:23;13.50;99.90
31619;DHT22;18230;51.502;7.108;2024-03-25T13:09:23;13.50;99.90
31619;DHT22;18230;51.502;7.108;2024-03-25T13:14:25;13.40;99.90
31619;DHT22;18230;51.502;7.108;2024-03-25T13:19:25;13.20;99.90
31619;DHT22;18230;51.502;7.108;2024-03-25T13:24:28;13.20;99.90
31619;DHT22;18230;51.502;7.108;2024-03-25T13:29:29;12.90;99.90
31619;DHT22;18230;51.502;7.108;2024-03-25T13:34:29;13.30;99.90
31619;DHT22;18230;51.502;7.108;2024-03-25T13:39:30;13.70;99.90
31619;DHT22;18230;51.502;7.108;2024-03-25T13:44:31;13.90;99.90
31619;DHT22;18230;51.502;7.108;2024-03-25T13:49:35;13.80;99.90
31619;DHT22;18230;51.502;7.108;2024-03-25T13:54:36;13.90;99.90
31619;DHT22;18230;51.502;7.108;2024-03-25T13:59:37;13.90;99.90
31619;DHT22;18230;51.502;7.108;2024-03-25T14:04:38;13.90;99.90
31619;DHT22;18230;51.502;7.108;2024-03-25T14:09:38;13.90;99.90
31619;DHT22;18230;51.502;7.108;2024-03-25T14:14:39;14.00;99.90
31619;DHT22;18230;51.502;7.108;2024-03-25T14:19:39;13.70;99.90
31619;DHT22;18230;51.502;7.108;2024-03-25T14:24:40;13.70;99.90
31619;DHT22;18230;51.502;7.108;2024-03-25T14:29:41;13.60;99.90
31619;DHT22;18230;51.502;7.108;2024-03-25T14:34:41;13.40;99.90
31619;DHT22;18230;51.502;7.108;2024-03-25T14:39:42;13.80;99.40
31619;DHT22;18230;51.502;7.108;2024-03-25T14:44:43;14.20;98.10
31619;DHT22;18230;51.502;7.108;2024-03-25T14:49:43;14.40;98.00
31619;DHT22;18230;51.502;7.108;2024-03-25T14:54:44;14.70;97.50
31619;DHT22;18230;51.502;7.108;2024-03-25T14:59:45;14.90;95.60
31619;DHT22;18230;51.502;7.108;2024-03-25T15:04:45;14.80;96.60
31619;DHT22;18230;51.502;7.108;2024-03-25T15:09:46;15.00;96.00
31619;DHT22;18230;51.502;7.108;2024-03-25T15:14:47;15.20;96.00
31619;DHT22;18230;51.502;7.108;2024-03-25T15:19:47;15.30;94.90
31619;DHT22;18230;51.502;7.108;2024-03-25T15:24:48;15.50;93.60
31619;DHT22;18230;51.502;7.108;2024-03-25T15:29:50;15.50;92.50
31619;DHT22;18230;51.502;7.108;2024-03-25T15:34:52;15.50;92.20
31619;DHT22;18230;51.502;7.108;2024-03-25T15:39:53;15.80;92.60
31619;DHT22;18230;51.502;7.108;2024-03-25T15:44:56;15.70;90.50
31619;DHT22;18230;51.502;7.108;2024-03-25T15:49:57;15.40;90.40
31619;DHT22;18230;51.502;7.108;2024-03-25T15:54:57;15.20;89.00
31619;DHT22;18230;51.502;7.108;2024-03-25T15:59:58;15.40;88.20
31619;DHT22;18230;51.502;7.108;2024-03-25T16:04:59;14.90;88.50
31619;DHT22;18230;51.502;7.108;2024-03-25T16:10:00;14.80;88.80
31619;DHT22;18230;51.502;7.108;2024-03-25T16:15:01;14.80;89.60
31619;DHT22;18230;51.502;7.108;2024-03-25T16:20:02;14.90;87.10
31619;DHT22;18230;51.502;7.108;2024-03-25T16:25:03;15.20;87.20
31619;DHT22;18230;51.502;7.108;2024-03-25T16:30:04;15.40;84.90
31619;DHT22;18230;51.502;7.108;2024-03-25T16:35:05;15.60;84.10
31619;DHT22;18230;51.502;7.108;2024-03-25T16:40:07;15.50;84.00
31619;DHT22;18230;51.502;7.108;2024-03-25T16:45:08;15.50;82.60
31619;DHT22;18230;51.502;7.108;2024-03-25T16:50:09;15.30;82.60
31619;DHT22;18230;51.502;7.108;2024-03-25T16:55:10;15.20;83.40
31619;DHT22;18230;51.502;7.108;2024-03-25T17:00:11;15.00;82.60
31619;DHT22;18230;51.502;7.108;2024-03-25T17:05:13;15.00;83.30
31619;DHT22;18230;51.502;7.108;2024-03-25T17:10:14;14.70;84.10
31619;DHT22;18230;51.502;7.108;2024-03-25T17:15:14;14.40;84.80
31619;DHT22;18230;51.502;7.108;2024-03-25T17:20:15;14.10;86.20
31619;DHT22;18230;51.502;7.108;2024-03-25T17:25:16;13.80;87.50
31619;DHT22;18230;51.502;7.108;2024-03-25T17:30:16;13.50;90.30
31619;DHT22;18230;51.502;7.108;2024-03-25T17:35:17;13.30;90.50
31619;DHT22;18230;51.502;7.108;2024-03-25T17:40:18;13.10;91.40
31619;DHT22;18230;51.502;7.108;2024-03-25T17:45:18;12.90;92.10
31619;DHT22;18230;51.502;7.108;2024-03-25T17:50:20;12.80;92.30
31619;DHT22;18230;51.502;7.108;2024-03-25T17:55:21;12.70;93.10
31619;DHT22;18230;51.502;7.108;2024-03-25T18:00:22;12.50;93.70
31619;DHT22;18230;51.502;7.108;2024-03-25T18:05:22;12.30;94.60
31619;DHT22;18230;51.502;7.108;2024-03-25T18:10:23;12.20;95.70
31619;DHT22;18230;51.502;7.108;2024-03-25T18:15:23;12.10;96.90
31619;DHT22;18230;51.502;7.108;2024-03-25T18:20:24;12.00;98.10
31619;DHT22;18230;51.502;7.108;2024-03-25T18:25:25;11.70;99.90
31619;DHT22;18230;51.502;7.108;2024-03-25T18:30:25;11.40;99.90
31619;DHT22;18230;51.502;7.108;2024-03-25T18:35:26;11.30;99.90
31619;DHT22;18230;51.502;7.108;2024-03-25T18:40:26;11.10;99.90
31619;DHT22;18230;51.502;7.108;2024-03-25T18:45:27;11.00;99.90
31619;DHT22;18230;51.502;7.108;2024-03-25T18:50:28;10.90;99.90
31619;DHT22;18230;51.502;7.108;2024-03-25T18:55:28;10.80;99.90
31619;DHT22;18230;51.502;7.108;2024-03-25T19:00:29;10.70;99.90
31619;DHT22;18230;51.502;7.108;2024-03-25T19:05:30;10.60;99.90
31619;DHT22;18230;51.502;7.108;2024-03-25T19:10:30;10.40;99.90
31619;DHT22;18230;51.502;7.108;2024-03-25T19:15:31;10.30;99.90
31619;DHT22;18230;51.502;7.108;2024-03-25T19:20:32;10.30;99.90
31619;DHT22;18230;51.502;7.108;2024-03-25T19:25:32;10.20;99.90
31619;DHT22;18230;51.502;7.108;2024-03-25T19:30:33;10.10;99.90
31619;DHT22;18230;51.502;7.108;2024-03-25T19:35:34;10.00;99.90
31619;DHT22;18230;51.502;7.108;2024-03-25T19:40:34;9.90;99.90
31619;DHT22;18230;51.502;7.108;2024-03-25T19:45:35;9.90;99.90
31619;DHT22;18230;51.502;7.108;2024-03-25T19:50:36;9.80;99.90
31619;DHT22;18230;51.502;7.108;2024-03-25T19:55:37;9.80;99.90
31619;DHT22;18230;51.502;7.108;2024-03-25T20:00:38;9.70;99.90
31619;DHT22;18230;51.502;7.108;2024-03-25T20:05:38;9.70;99.90
31619;DHT22;18230;51.502;7.108;2024-03-25T20:10:39;9.70;99.90
31619;DHT22;18230;51.502;7.108;2024-03-25T20:15:42;9.60;99.90
31619;DHT22;18230;51.502;7.108;2024-03-25T20:20:43;9.50;99.90
31619;DHT22;18230;51.502;7.108;2024-03-25T20:25:43;9.50;99.90
31619;DHT22;18230;51.502;7.108;2024-03-25T20:30:46;9.40;99.90
31619;DHT22;18230;51.502;7.108;2024-03-25T20:35:46;9.40;99.90
31619;DHT22;18230;51.502;7.108;2024-03-25T20:40:47;9.30;99.90
31619;DHT22;18230;51.502;7.108;2024-03-25T20:45:48;9.30;99.90
31619;DHT22;18230;51.502;7.108;2024-03-25T20:50:48;9.30;99.90
31619;DHT22;18230;51.502;7.108;2024-03-25T20:55:49;9.20;99.90
31619;DHT22;18230;51.502;7.108;2024-03-25T21:00:50;9.10;99.90
31619;DHT22;18230;51.502;7.108;2024-03-25T21:05:55;9.10;99.90
31619;DHT22;18230;51.502;7.108;2024-03-25T21:10:56;9.10;99.90
31619;DHT22;18230;51.502;7.108;2024-03-25T21:15:57;9.00;99.90
31619;DHT22;18230;51.502;7.108;2024-03-25T21:20:58;9.00;99.90
31619;DHT22;18230;51.502;7.108;2024-03-25T21:25:59;9.00;99.90
31619;DHT22;18230;51.502;7.108;2024-03-25T21:30:59;9.00;99.90
31619;DHT22;18230;51.502;7.108;2024-03-25T21:36:00;8.90;99.90
31619;DHT22;18230;51.502;7.108;2024-03-25T21:41:01;8.90;99.90
31619;DHT22;18230;51.502;7.108;2024-03-25T21:46:01;8.90;99.90
31619;DHT22;18230;51.502;7.108;2024-03-25T21:51:02;8.80;99.90
31619;DHT22;18230;51.502;7.108;2024-03-25T21:56:03;8.70;99.90
31619;DHT22;18230;51.502;7.108;2024-03-25T22:01:04;8.60;99.90
31619;DHT22;18230;51.502;7.108;2024-03-25T22:06:05;8.60;99.90
31619;DHT22;18230;51.502;7.108;2024-03-25T22:11:06;8.50;99.90
31619;DHT22;18230;51.502;7.108;2024-03-25T22:16:06;8.40;99.90
31619;DHT22;18230;51.502;7.108;2024-03-25T22:21:07;8.30;99.90
31619;DHT22;18230;51.502;7.108;2024-03-25T22:26:08;8.20;99.90
31619;DHT22;18230;51.502;7.108;2024-03-25T22:31:08;8.20;99.90
31619;DHT22;18230;51.502;7.108;2024-03-25T22:36:09;8.10;99.90
31619;DHT22;18230;51.502;7.108;2024-03-25T22:41:09;8.10;99.90
31619;DHT22;18230;51.502;7.108;2024-03-25T22:46:10;8.00;99.90
31619;DHT22;18230;51.502;7.108;2024-03-25T22:51:11;8.00;99.90
31619;DHT22;18230;51.502;7.108;2024-03-25T22:56:12;7.90;99.90
31619;DHT22;18230;51.502;7.108;2024-03-25T23:01:13;7.90;99.90
31619;DHT22;18230;51.502;7.108;2024-03-25T23:06:14;7.80;99.90
31619;DHT22;18230;51.502;7.108;2024-03-25T23:11:14;7.80;99.90
31619;DHT22;18230;51.502;7.108;2024-03-25T23:16:15;7.70;99.90
31619;DHT22;18230;51.502;7.108;2024-03-25T23:21:16;7.70;99.90
31619;DHT22;18230;51.502;7.108;2024-03-25T23:26:16;7.70;99.90
31619;DHT22;18230;51.502;7.108;2024-03-25T23:31:17;7.60;99.90
31619;DHT22;18230;51.502;7.108;2024-03-25T23:36:17;7.60;99.90
31619;DHT22;18230;51.502;7.108;2024-03-25T23:41:18;7.60;99.90
31619;DHT22;18230;51.502;7.108;2024-03-25T23:46:19;7.50;99.90
31619;DHT22;18230;51.502;7.108;2024-03-25T23:51:21;7.50;99.90
31619;DHT22;18230;51.502;7.108;2024-03-25T23:56:22;7.50;99.90
